Oski — WYD3004 — position and weather

sailwx.info

Track history (hours):
 
Tides and Currents Weather Stations Pressure Air Temp Water Temp Dewpoint Dewpoint Depression Visibility Wind Speed Wind Dir Waves Ship Positions

Oski

Owner: BLUE & GOLD FLEET, SAN FRANCISCO, CA. More information available from US FCC via Universal Licensing System and Coast Guard Vessel Documentation Center.

Last reported at 2015-Aug-02 23:34 UTC. Time now 2015-Aug-03 00:31 UTC.
Position N 37°49' W 122°25'.

Length 24 m; draft 2 m.

Type: Passenger vessel. MMSI: 366985320.

Date/timePositionNaut miles runAvg speedWind from/ knotsBaromVisibWave heightAir tempDewpointWater temp
2015-Aug-02 23:34N 37°49' W 122°25'1 1.0
2015-Aug-02 22:34N 37°49' W 122°25'0 0.0
2015-Aug-02 21:33N 37°49' W 122°25'0 0.0
2015-Aug-02 20:34N 37°49' W 122°25'2 2.0
2015-Aug-02 19:34N 37°49' W 122°27'2 1.9
2015-Aug-02 18:33N 37°49' W 122°25'1 0.9
2015-Aug-02 17:32N 37°49' W 122°25'0 0.0
2015-Aug-02 16:26N 37°49' W 122°25'0 0.0
2015-Aug-02 15:31N 37°49' W 122°25'0 0.0
2015-Aug-02 14:26N 37°49' W 122°25'0 0.0
2015-Aug-02 13:32N 37°49' W 122°25'0 0.0
2015-Aug-02 12:28N 37°49' W 122°25'0 0.0
2015-Aug-02 11:33N 37°49' W 122°25'0 0.0
2015-Aug-02 10:33N 37°49' W 122°25'0 0.0
2015-Aug-02 09:32N 37°49' W 122°25'0 0.0
2015-Aug-02 08:33N 37°49' W 122°25'0 0.0
2015-Aug-02 07:28N 37°49' W 122°25'0 0.0
2015-Aug-02 06:32N 37°49' W 122°25'0 0.0
2015-Aug-02 05:32N 37°49' W 122°25'0 0.0
2015-Aug-02 04:33N 37°49' W 122°25'0 0.0
2015-Aug-02 03:33N 37°49' W 122°25'2 1.8
2015-Aug-02 02:33N 37°49' W 122°27'1 1.2
2015-Aug-02 01:33N 37°49' W 122°25'1 0.9
2015-Aug-02 00:33N 37°49' W 122°25'1 1.5
2015-Aug-01 23:34N 37°50' W 122°26'1 1.5
2015-Aug-01 22:33N 37°49' W 122°25'0 0.0
2015-Aug-01 21:34N 37°49' W 122°25'0 0.0
2015-Aug-01 20:33N 37°49' W 122°25'2 2.0
2015-Aug-01 19:33N 37°49' W 122°27'2 2.0
2015-Aug-01 18:33N 37°49' W 122°24'1 0.6
2015-Aug-01 17:33N 37°49' W 122°25'0 0.0
2015-Aug-01 16:33N 37°49' W 122°25'0 0.0
2015-Aug-01 15:33N 37°49' W 122°25'0 0.0
2015-Aug-01 14:33N 37°49' W 122°25'0 0.0
2015-Aug-01 13:33N 37°49' W 122°25'0 0.0
2015-Aug-01 12:33N 37°49' W 122°25'0 0.0
2015-Aug-01 11:33N 37°49' W 122°25'0 0.0
2015-Aug-01 10:33N 37°49' W 122°25'0 0.0
2015-Aug-01 09:33N 37°49' W 122°25'0 0.0
2015-Aug-01 08:33N 37°49' W 122°25'0 0.0
2015-Aug-01 07:33N 37°49' W 122°25'0 0.0
2015-Aug-01 06:33N 37°49' W 122°25'0 0.0
2015-Aug-01 05:33N 37°49' W 122°25'0 0.0
2015-Aug-01 04:34N 37°49' W 122°25'0 0.0
2015-Aug-01 03:33N 37°49' W 122°25'2 2.4
2015-Aug-01 02:33N 37°49' W 122°28'2 1.8
2015-Aug-01 01:33N 37°50' W 122°25'1 1.3
2015-Aug-01 00:33N 37°49' W 122°25'1 1.2
2015-Jul-31 23:33N 37°50' W 122°25'1 1.2
2015-Jul-31 22:33N 37°49' W 122°25'0 0.1
2015-Jul-31 21:33N 37°49' W 122°25'0 0.1
2015-Jul-31 20:33N 37°49' W 122°25'3 2.6
2015-Jul-31 19:33N 37°49' W 122°28'2 2.4
2015-Jul-31 18:33N 37°49' W 122°25'1 0.9
2015-Jul-31 17:33N 37°49' W 122°25'0 0.0
2015-Jul-31 16:33N 37°49' W 122°25'0 0.0
2015-Jul-31 15:28N 37°49' W 122°25'0 0.0
2015-Jul-31 14:32N 37°49' W 122°25'0 0.0
2015-Jul-31 13:33N 37°49' W 122°25'0 0.0
2015-Jul-31 12:31N 37°49' W 122°25'0 0.0
2015-Jul-31 11:32N 37°49' W 122°25'0 0.0
2015-Jul-31 10:32N 37°49' W 122°25'0 0.0
2015-Jul-31 09:33N 37°49' W 122°25'0 0.0
2015-Jul-31 08:33N 37°49' W 122°25'0 0.0
2015-Jul-31 07:32N 37°49' W 122°25'0 0.0
2015-Jul-31 06:33N 37°49' W 122°25'0 0.0
2015-Jul-31 05:32N 37°49' W 122°25'0 0.0
2015-Jul-31 04:31N 37°49' W 122°25'0 0.0
2015-Jul-31 03:29N 37°49' W 122°25'2 2.4
2015-Jul-31 02:33N 37°50' W 122°27'2 2.0
2015-Jul-31 01:34N 37°49' W 122°25'1 0.6
2015-Jul-31 00:32N 37°49' W 122°25'1 1.4
2015-Jul-30 23:33N 37°50' W 122°26'1 1.3
2015-Jul-30 22:33N 37°49' W 122°25'0 0.0
2015-Jul-30 21:33N 37°49' W 122°25'0 0.0
2015-Jul-30 20:33N 37°49' W 122°25'2 2.1
2015-Jul-30 19:33N 37°49' W 122°27'2 2.0
2015-Jul-30 18:33N 37°49' W 122°25'1 0.7
2015-Jul-30 17:33N 37°49' W 122°25'0 0.0
2015-Jul-30 16:31N 37°49' W 122°25'0 0.0
2015-Jul-30 15:33N 37°49' W 122°25'0 0.0
2015-Jul-30 14:28N 37°49' W 122°25'0 0.0
2015-Jul-30 13:32N 37°49' W 122°25'0 0.0
2015-Jul-30 12:29N 37°49' W 122°25'0 0.0
2015-Jul-30 11:27N 37°49' W 122°25'0 0.0
2015-Jul-30 10:32N 37°49' W 122°25'0 0.0
2015-Jul-30 09:34N 37°49' W 122°25'0 0.0
2015-Jul-30 08:33N 37°49' W 122°25'0 0.0
2015-Jul-30 07:33N 37°49' W 122°25'0 0.0
2015-Jul-30 06:32N 37°49' W 122°25'0 0.0
2015-Jul-30 05:28N 37°49' W 122°25'0 0.0
2015-Jul-30 04:28N 37°49' W 122°25'0 0.0
2015-Jul-30 03:30N 37°49' W 122°25'2 2.5
2015-Jul-30 02:33N 37°50' W 122°27'2 2.2
2015-Jul-30 01:33N 37°49' W 122°25'1 0.6
2015-Jul-30 00:32N 37°49' W 122°25'1 1.4
2015-Jul-29 23:33N 37°50' W 122°26'1 1.3
2015-Jul-29 22:33N 37°49' W 122°25'0 0.0
2015-Jul-29 21:27N 37°49' W 122°25'0 0.0
2015-Jul-29 20:32N 37°49' W 122°25'2 2.5
2015-Jul-29 19:33N 37°49' W 122°28'3 2.5
2015-Jul-29 18:33N 37°49' W 122°24'1 0.5
2015-Jul-29 17:27N 37°49' W 122°25'0 0.0
2015-Jul-29 16:32N 37°49' W 122°25'0 0.0
2015-Jul-29 15:33N 37°49' W 122°25'0 0.0
2015-Jul-29 14:32N 37°49' W 122°25'0 0.0
2015-Jul-29 13:33N 37°49' W 122°25'0 0.0
2015-Jul-29 12:33N 37°49' W 122°25'0 0.0
2015-Jul-29 11:29N 37°49' W 122°25'0 0.0
2015-Jul-29 10:32N 37°49' W 122°25'0 0.0
2015-Jul-29 09:33N 37°49' W 122°25'0 0.0
2015-Jul-29 08:28N 37°49' W 122°25'0 0.0
2015-Jul-29 07:33N 37°49' W 122°25'0 0.0
2015-Jul-29 06:33N 37°49' W 122°25'0 0.0
2015-Jul-29 05:33N 37°49' W 122°25'0 0.0
2015-Jul-29 04:33N 37°49' W 122°25'0 0.0
2015-Jul-29 03:30N 37°49' W 122°25'2 2.1
2015-Jul-29 02:34N 37°50' W 122°27'2 1.6
2015-Jul-29 01:34N 37°49' W 122°25'1 0.7
2015-Jul-29 00:33N 37°49' W 122°25'1 1.4
2015-Jul-28 23:33N 37°50' W 122°26'1 1.4
2015-Jul-28 22:33N 37°49' W 122°25'0 0.1
2015-Jul-28 21:33N 37°49' W 122°25'0 0.1
2015-Jul-28 20:33N 37°49' W 122°25'3 2.6
2015-Jul-28 19:33N 37°49' W 122°28'2 2.5
2015-Jul-28 18:33N 37°49' W 122°25'1 0.7
2015-Jul-28 17:33N 37°49' W 122°25'0 0.0
2015-Jul-28 16:33N 37°49' W 122°25'0 0.0
2015-Jul-28 15:31N 37°49' W 122°25'0 0.0
2015-Jul-28 14:30N 37°49' W 122°25'0 0.0
2015-Jul-28 13:33N 37°49' W 122°25'0 0.0
2015-Jul-28 12:28N 37°49' W 122°25'0 0.0
2015-Jul-28 11:28N 37°49' W 122°25'0 0.0
2015-Jul-28 10:33N 37°49' W 122°25'0 0.0
2015-Jul-28 09:33N 37°49' W 122°25'0 0.0
2015-Jul-28 08:33N 37°49' W 122°25'0 0.0
2015-Jul-28 07:33N 37°49' W 122°25'0 0.0
2015-Jul-28 06:31N 37°49' W 122°25'0 0.0
2015-Jul-28 05:29N 37°49' W 122°25'0 0.0
2015-Jul-28 04:33N 37°49' W 122°25'0 0.0
2015-Jul-28 03:32N 37°49' W 122°25'2 2.1
2015-Jul-28 02:33N 37°50' W 122°27'1 1.4
2015-Jul-28 01:33N 37°49' W 122°25'1 0.9
2015-Jul-28 00:34N 37°49' W 122°25'1 1.3
2015-Jul-27 23:34N 37°50' W 122°26'1 1.3
2015-Jul-27 22:34N 37°49' W 122°25'0 0.1
2015-Jul-27 21:34N 37°49' W 122°25'0 0.1
2015-Jul-27 20:34N 37°49' W 122°25'2 2.4
2015-Jul-27 19:34N 37°49' W 122°28'3 2.5
2015-Jul-27 18:33N 37°49' W 122°25'1 0.5
2015-Jul-27 17:34N 37°49' W 122°25'0 0.0
2015-Jul-27 16:31N 37°49' W 122°25'0 0.0
2015-Jul-27 15:31N 37°49' W 122°25'0 0.0
2015-Jul-27 14:27N 37°49' W 122°25'0 0.0
2015-Jul-27 13:32N 37°49' W 122°25'0 0.0
2015-Jul-27 12:30N 37°49' W 122°25'0 0.0
2015-Jul-27 11:33N 37°49' W 122°25'0 0.0
2015-Jul-27 10:32N 37°49' W 122°25'0 0.0
2015-Jul-27 09:32N 37°49' W 122°25'0 0.0
2015-Jul-27 08:32N 37°49' W 122°25'0 0.0
2015-Jul-27 07:32N 37°49' W 122°25'0 0.0
2015-Jul-27 06:31N 37°49' W 122°25'0 0.0
2015-Jul-27 05:27N 37°49' W 122°25'0 0.0
2015-Jul-27 04:31N 37°49' W 122°25'0 0.0
2015-Jul-27 03:26N 37°49' W 122°25'2 2.3
2015-Jul-27 02:33N 37°49' W 122°27'2 1.5
2015-Jul-27 01:34N 37°49' W 122°25'1 1.0
2015-Jul-27 00:33N 37°49' W 122°25'1 1.1
2015-Jul-26 23:33N 37°50' W 122°25'1 1.1
2015-Jul-26 22:33N 37°49' W 122°25'0 0.1
2015-Jul-26 21:33N 37°49' W 122°25'0 0.1
2015-Jul-26 20:33N 37°49' W 122°25'3 3.0
2015-Jul-26 19:33N 37°49' W 122°28'3 3.2
2015-Jul-26 18:33N 37°49' W 122°24'1 0.7
2015-Jul-26 17:33N 37°49' W 122°25'0 0.0
2015-Jul-26 16:33N 37°49' W 122°25'0 0.0
2015-Jul-26 15:31N 37°49' W 122°25'0 0.0
2015-Jul-26 14:28N 37°49' W 122°25'0 0.0
2015-Jul-26 13:28N 37°49' W 122°25'0 0.0
2015-Jul-26 12:32N 37°49' W 122°25'0 0.0
2015-Jul-26 11:30N 37°49' W 122°25'0 0.0
2015-Jul-26 10:31N 37°49' W 122°25'0 0.0
2015-Jul-26 09:26N 37°49' W 122°25'0 0.0
2015-Jul-26 08:31N 37°49' W 122°25'0 0.0
2015-Jul-26 07:31N 37°49' W 122°25'0 0.0
2015-Jul-26 06:33N 37°49' W 122°25'0 0.0
2015-Jul-26 05:31N 37°49' W 122°25'0 0.0
2015-Jul-26 04:34N 37°49' W 122°25'0 0.0
2015-Jul-26 03:33N 37°49' W 122°25'0 0.0
2015-Jul-26 02:30N 37°49' W 122°25'2 2.4
2015-Jul-26 01:34N 37°49' W 122°27'2 2.3
2015-Jul-26 00:34N 37°49' W 122°25'0 0.0
2015-Jul-25 23:33N 37°49' W 122°25'2 1.8
2015-Jul-25 22:34N 37°49' W 122°27'2 1.8
2015-Jul-25 21:34N 37°49' W 122°25'2 2.1
2015-Jul-25 20:34N 37°49' W 122°27'3 2.9
2015-Jul-25 19:34N 37°49' W 122°24'1 0.9
2015-Jul-25 18:34N 37°49' W 122°25'0 0.1
2015-Jul-25 17:33N 37°49' W 122°25'0 0.0
2015-Jul-25 16:31N 37°49' W 122°25'0 0.0
2015-Jul-25 15:26N 37°49' W 122°25'0 0.0
2015-Jul-25 14:32N 37°49' W 122°25'0 0.0
2015-Jul-25 13:31N 37°49' W 122°25'0 0.0
2015-Jul-25 12:29N 37°49' W 122°25'0 0.0
2015-Jul-25 11:30N 37°49' W 122°25'0 0.0
2015-Jul-25 10:33N 37°49' W 122°25'0 0.0
2015-Jul-25 09:33N 37°49' W 122°25'0 0.0
2015-Jul-25 08:31N 37°49' W 122°25'0 0.0
2015-Jul-25 07:26N 37°49' W 122°25'0 0.0
2015-Jul-25 06:33N 37°49' W 122°25'0 0.0
2015-Jul-25 05:21N 37°49' W 122°25'0 0.0
2015-Jul-25 04:31N 37°49' W 122°25'0 0.0
2015-Jul-25 03:33N 37°49' W 122°25'0 0.0
2015-Jul-25 02:17N 37°49' W 122°25'2 2.7
2015-Jul-25 01:33N 37°49' W 122°27'2 2.0
2015-Jul-25 00:33N 37°49' W 122°25'0 0.0
2015-Jul-24 23:33N 37°49' W 122°25'1 0.7
2015-Jul-24 22:33N 37°49' W 122°25'2 1.7
2015-Jul-24 21:33N 37°50' W 122°27'2 2.0
2015-Jul-24 20:33N 37°49' W 122°25'1 0.7
2015-Jul-24 19:33N 37°49' W 122°25'0 0.0
2015-Jul-24 18:33N 37°49' W 122°25'0 0.0
2015-Jul-24 17:17N 37°49' W 122°25'0 0.0
2015-Jul-24 16:31N 37°49' W 122°25'0 0.0
2015-Jul-24 15:32N 37°49' W 122°25'0 0.0
2015-Jul-24 14:31N 37°49' W 122°25'0 0.0
2015-Jul-24 13:29N 37°49' W 122°25'0 0.0
2015-Jul-24 12:32N 37°49' W 122°25'0 0.0
2015-Jul-24 11:32N 37°49' W 122°25'0 0.0
2015-Jul-24 10:32N 37°49' W 122°25'0 0.0
2015-Jul-24 09:28N 37°49' W 122°25'0 0.0
2015-Jul-24 08:32N 37°49' W 122°25'0 0.0
2015-Jul-24 07:23N 37°49' W 122°25'0 0.0
2015-Jul-24 06:30N 37°49' W 122°25'0 0.0
2015-Jul-24 05:29N 37°49' W 122°25'0 0.0
2015-Jul-24 04:32N 37°49' W 122°25'0 0.0
2015-Jul-24 03:23N 37°49' W 122°25'0 0.0
2015-Jul-24 02:33N 37°49' W 122°25'0 0.0
2015-Jul-24 01:33N 37°49' W 122°25'2 2.3
2015-Jul-24 00:33N 37°49' W 122°27'  
Track history (hours):
 
Tides and Currents Weather Stations Pressure Air Temp Water Temp Dewpoint Dewpoint Depression Visibility Wind Speed Wind Dir Waves Ship Positions

Oski

Owner: BLUE & GOLD FLEET, SAN FRANCISCO, CA. More information available from US FCC via Universal Licensing System and Coast Guard Vessel Documentation Center.

Last reported at 2015-Aug-02 23:34 UTC. Time now 2015-Aug-03 00:31 UTC.
Position N 37°49' W 122°25'.

Length 24 m; draft 2 m.

Type: Passenger vessel. MMSI: 366985320.

Date/timePositionNaut miles runAvg speedWind from/ knotsBaromVisibWave heightAir tempDewpointWater temp
2015-Aug-02 23:34N 37°49' W 122°25'1 1.0
2015-Aug-02 22:34N 37°49' W 122°25'0 0.0
2015-Aug-02 21:33N 37°49' W 122°25'0 0.0
2015-Aug-02 20:34N 37°49' W 122°25'2 2.0
2015-Aug-02 19:34N 37°49' W 122°27'2 1.9
2015-Aug-02 18:33N 37°49' W 122°25'1 0.9
2015-Aug-02 17:32N 37°49' W 122°25'0 0.0
2015-Aug-02 16:26N 37°49' W 122°25'0 0.0
2015-Aug-02 15:31N 37°49' W 122°25'0 0.0
2015-Aug-02 14:26N 37°49' W 122°25'0 0.0
2015-Aug-02 13:32N 37°49' W 122°25'0 0.0
2015-Aug-02 12:28N 37°49' W 122°25'0 0.0
2015-Aug-02 11:33N 37°49' W 122°25'0 0.0
2015-Aug-02 10:33N 37°49' W 122°25'0 0.0
2015-Aug-02 09:32N 37°49' W 122°25'0 0.0
2015-Aug-02 08:33N 37°49' W 122°25'0 0.0
2015-Aug-02 07:28N 37°49' W 122°25'0 0.0
2015-Aug-02 06:32N 37°49' W 122°25'0 0.0
2015-Aug-02 05:32N 37°49' W 122°25'0 0.0
2015-Aug-02 04:33N 37°49' W 122°25'0 0.0
2015-Aug-02 03:33N 37°49' W 122°25'2 1.8
2015-Aug-02 02:33N 37°49' W 122°27'1 1.2
2015-Aug-02 01:33N 37°49' W 122°25'1 0.9
2015-Aug-02 00:33N 37°49' W 122°25'1 1.5
2015-Aug-01 23:34N 37°50' W 122°26'1 1.5
2015-Aug-01 22:33N 37°49' W 122°25'0 0.0
2015-Aug-01 21:34N 37°49' W 122°25'0 0.0
2015-Aug-01 20:33N 37°49' W 122°25'2 2.0
2015-Aug-01 19:33N 37°49' W 122°27'2 2.0
2015-Aug-01 18:33N 37°49' W 122°24'1 0.6
2015-Aug-01 17:33N 37°49' W 122°25'0 0.0
2015-Aug-01 16:33N 37°49' W 122°25'0 0.0
2015-Aug-01 15:33N 37°49' W 122°25'0 0.0
2015-Aug-01 14:33N 37°49' W 122°25'0 0.0
2015-Aug-01 13:33N 37°49' W 122°25'0 0.0
2015-Aug-01 12:33N 37°49' W 122°25'0 0.0
2015-Aug-01 11:33N 37°49' W 122°25'0 0.0
2015-Aug-01 10:33N 37°49' W 122°25'0 0.0
2015-Aug-01 09:33N 37°49' W 122°25'0 0.0
2015-Aug-01 08:33N 37°49' W 122°25'0 0.0
2015-Aug-01 07:33N 37°49' W 122°25'0 0.0
2015-Aug-01 06:33N 37°49' W 122°25'0 0.0
2015-Aug-01 05:33N 37°49' W 122°25'0 0.0
2015-Aug-01 04:34N 37°49' W 122°25'0 0.0
2015-Aug-01 03:33N 37°49' W 122°25'2 2.4
2015-Aug-01 02:33N 37°49' W 122°28'2 1.8
2015-Aug-01 01:33N 37°50' W 122°25'1 1.3
2015-Aug-01 00:33N 37°49' W 122°25'1 1.2
2015-Jul-31 23:33N 37°50' W 122°25'1 1.2
2015-Jul-31 22:33N 37°49' W 122°25'0 0.1
2015-Jul-31 21:33N 37°49' W 122°25'0 0.1
2015-Jul-31 20:33N 37°49' W 122°25'3 2.6
2015-Jul-31 19:33N 37°49' W 122°28'2 2.4
2015-Jul-31 18:33N 37°49' W 122°25'1 0.9
2015-Jul-31 17:33N 37°49' W 122°25'0 0.0
2015-Jul-31 16:33N 37°49' W 122°25'0 0.0
2015-Jul-31 15:28N 37°49' W 122°25'0 0.0
2015-Jul-31 14:32N 37°49' W 122°25'0 0.0
2015-Jul-31 13:33N 37°49' W 122°25'0 0.0
2015-Jul-31 12:31N 37°49' W 122°25'0 0.0
2015-Jul-31 11:32N 37°49' W 122°25'0 0.0
2015-Jul-31 10:32N 37°49' W 122°25'0 0.0
2015-Jul-31 09:33N 37°49' W 122°25'0 0.0
2015-Jul-31 08:33N 37°49' W 122°25'0 0.0
2015-Jul-31 07:32N 37°49' W 122°25'0 0.0
2015-Jul-31 06:33N 37°49' W 122°25'0 0.0
2015-Jul-31 05:32N 37°49' W 122°25'0 0.0
2015-Jul-31 04:31N 37°49' W 122°25'0 0.0
2015-Jul-31 03:29N 37°49' W 122°25'2 2.4
2015-Jul-31 02:33N 37°50' W 122°27'2 2.0
2015-Jul-31 01:34N 37°49' W 122°25'1 0.6
2015-Jul-31 00:32N 37°49' W 122°25'1 1.4
2015-Jul-30 23:33N 37°50' W 122°26'1 1.3
2015-Jul-30 22:33N 37°49' W 122°25'0 0.0
2015-Jul-30 21:33N 37°49' W 122°25'0 0.0
2015-Jul-30 20:33N 37°49' W 122°25'2 2.1
2015-Jul-30 19:33N 37°49' W 122°27'2 2.0
2015-Jul-30 18:33N 37°49' W 122°25'1 0.7
2015-Jul-30 17:33N 37°49' W 122°25'0 0.0
2015-Jul-30 16:31N 37°49' W 122°25'0 0.0
2015-Jul-30 15:33N 37°49' W 122°25'0 0.0
2015-Jul-30 14:28N 37°49' W 122°25'0 0.0
2015-Jul-30 13:32N 37°49' W 122°25'0 0.0
2015-Jul-30 12:29N 37°49' W 122°25'0 0.0
2015-Jul-30 11:27N 37°49' W 122°25'0 0.0
2015-Jul-30 10:32N 37°49' W 122°25'0 0.0
2015-Jul-30 09:34N 37°49' W 122°25'0 0.0
2015-Jul-30 08:33N 37°49' W 122°25'0 0.0
2015-Jul-30 07:33N 37°49' W 122°25'0 0.0
2015-Jul-30 06:32N 37°49' W 122°25'0 0.0
2015-Jul-30 05:28N 37°49' W 122°25'0 0.0
2015-Jul-30 04:28N 37°49' W 122°25'0 0.0
2015-Jul-30 03:30N 37°49' W 122°25'2 2.5
2015-Jul-30 02:33N 37°50' W 122°27'2 2.2
2015-Jul-30 01:33N 37°49' W 122°25'1 0.6
2015-Jul-30 00:32N 37°49' W 122°25'1 1.4
2015-Jul-29 23:33N 37°50' W 122°26'1 1.3
2015-Jul-29 22:33N 37°49' W 122°25'0 0.0
2015-Jul-29 21:27N 37°49' W 122°25'0 0.0
2015-Jul-29 20:32N 37°49' W 122°25'2 2.5
2015-Jul-29 19:33N 37°49' W 122°28'3 2.5
2015-Jul-29 18:33N 37°49' W 122°24'1 0.5
2015-Jul-29 17:27N 37°49' W 122°25'0 0.0
2015-Jul-29 16:32N 37°49' W 122°25'0 0.0
2015-Jul-29 15:33N 37°49' W 122°25'0 0.0
2015-Jul-29 14:32N 37°49' W 122°25'0 0.0
2015-Jul-29 13:33N 37°49' W 122°25'0 0.0
2015-Jul-29 12:33N 37°49' W 122°25'0 0.0
2015-Jul-29 11:29N 37°49' W 122°25'0 0.0
2015-Jul-29 10:32N 37°49' W 122°25'0 0.0
2015-Jul-29 09:33N 37°49' W 122°25'0 0.0
2015-Jul-29 08:28N 37°49' W 122°25'0 0.0
2015-Jul-29 07:33N 37°49' W 122°25'0 0.0
2015-Jul-29 06:33N 37°49' W 122°25'0 0.0
2015-Jul-29 05:33N 37°49' W 122°25'0 0.0
2015-Jul-29 04:33N 37°49' W 122°25'0 0.0
2015-Jul-29 03:30N 37°49' W 122°25'2 2.1
2015-Jul-29 02:34N 37°50' W 122°27'2 1.6
2015-Jul-29 01:34N 37°49' W 122°25'1 0.7
2015-Jul-29 00:33N 37°49' W 122°25'1 1.4
2015-Jul-28 23:33N 37°50' W 122°26'1 1.4
2015-Jul-28 22:33N 37°49' W 122°25'0 0.1
2015-Jul-28 21:33N 37°49' W 122°25'0 0.1
2015-Jul-28 20:33N 37°49' W 122°25'3 2.6
2015-Jul-28 19:33N 37°49' W 122°28'2 2.5
2015-Jul-28 18:33N 37°49' W 122°25'1 0.7
2015-Jul-28 17:33N 37°49' W 122°25'0 0.0
2015-Jul-28 16:33N 37°49' W 122°25'0 0.0
2015-Jul-28 15:31N 37°49' W 122°25'0 0.0
2015-Jul-28 14:30N 37°49' W 122°25'0 0.0
2015-Jul-28 13:33N 37°49' W 122°25'0 0.0
2015-Jul-28 12:28N 37°49' W 122°25'0 0.0
2015-Jul-28 11:28N 37°49' W 122°25'0 0.0
2015-Jul-28 10:33N 37°49' W 122°25'0 0.0
2015-Jul-28 09:33N 37°49' W 122°25'0 0.0
2015-Jul-28 08:33N 37°49' W 122°25'0 0.0
2015-Jul-28 07:33N 37°49' W 122°25'0 0.0
2015-Jul-28 06:31N 37°49' W 122°25'0 0.0
2015-Jul-28 05:29N 37°49' W 122°25'0 0.0
2015-Jul-28 04:33N 37°49' W 122°25'0 0.0
2015-Jul-28 03:32N 37°49' W 122°25'2 2.1
2015-Jul-28 02:33N 37°50' W 122°27'1 1.4
2015-Jul-28 01:33N 37°49' W 122°25'1 0.9
2015-Jul-28 00:34N 37°49' W 122°25'1 1.3
2015-Jul-27 23:34N 37°50' W 122°26'1 1.3
2015-Jul-27 22:34N 37°49' W 122°25'0 0.1
2015-Jul-27 21:34N 37°49' W 122°25'0 0.1
2015-Jul-27 20:34N 37°49' W 122°25'2 2.4
2015-Jul-27 19:34N 37°49' W 122°28'3 2.5
2015-Jul-27 18:33N 37°49' W 122°25'1 0.5
2015-Jul-27 17:34N 37°49' W 122°25'0 0.0
2015-Jul-27 16:31N 37°49' W 122°25'0 0.0
2015-Jul-27 15:31N 37°49' W 122°25'0 0.0
2015-Jul-27 14:27N 37°49' W 122°25'0 0.0
2015-Jul-27 13:32N 37°49' W 122°25'0 0.0
2015-Jul-27 12:30N 37°49' W 122°25'0 0.0
2015-Jul-27 11:33N 37°49' W 122°25'0 0.0
2015-Jul-27 10:32N 37°49' W 122°25'0 0.0
2015-Jul-27 09:32N 37°49' W 122°25'0 0.0
2015-Jul-27 08:32N 37°49' W 122°25'0 0.0
2015-Jul-27 07:32N 37°49' W 122°25'0 0.0
2015-Jul-27 06:31N 37°49' W 122°25'0 0.0
2015-Jul-27 05:27N 37°49' W 122°25'0 0.0
2015-Jul-27 04:31N 37°49' W 122°25'0 0.0
2015-Jul-27 03:26N 37°49' W 122°25'2 2.3
2015-Jul-27 02:33N 37°49' W 122°27'2 1.5
2015-Jul-27 01:34N 37°49' W 122°25'1 1.0
2015-Jul-27 00:33N 37°49' W 122°25'1 1.1
2015-Jul-26 23:33N 37°50' W 122°25'1 1.1
2015-Jul-26 22:33N 37°49' W 122°25'0 0.1
2015-Jul-26 21:33N 37°49' W 122°25'0 0.1
2015-Jul-26 20:33N 37°49' W 122°25'3 3.0
2015-Jul-26 19:33N 37°49' W 122°28'3 3.2
2015-Jul-26 18:33N 37°49' W 122°24'1 0.7
2015-Jul-26 17:33N 37°49' W 122°25'0 0.0
2015-Jul-26 16:33N 37°49' W 122°25'0 0.0
2015-Jul-26 15:31N 37°49' W 122°25'0 0.0
2015-Jul-26 14:28N 37°49' W 122°25'0 0.0
2015-Jul-26 13:28N 37°49' W 122°25'0 0.0
2015-Jul-26 12:32N 37°49' W 122°25'0 0.0
2015-Jul-26 11:30N 37°49' W 122°25'0 0.0
2015-Jul-26 10:31N 37°49' W 122°25'0 0.0
2015-Jul-26 09:26N 37°49' W 122°25'0 0.0
2015-Jul-26 08:31N 37°49' W 122°25'0 0.0
2015-Jul-26 07:31N 37°49' W 122°25'0 0.0
2015-Jul-26 06:33N 37°49' W 122°25'0 0.0
2015-Jul-26 05:31N 37°49' W 122°25'0 0.0
2015-Jul-26 04:34N 37°49' W 122°25'0 0.0
2015-Jul-26 03:33N 37°49' W 122°25'0 0.0
2015-Jul-26 02:30N 37°49' W 122°25'2 2.4
2015-Jul-26 01:34N 37°49' W 122°27'2 2.3
2015-Jul-26 00:34N 37°49' W 122°25'0 0.0
2015-Jul-25 23:33N 37°49' W 122°25'2 1.8
2015-Jul-25 22:34N 37°49' W 122°27'2 1.8
2015-Jul-25 21:34N 37°49' W 122°25'2 2.1
2015-Jul-25 20:34N 37°49' W 122°27'3 2.9
2015-Jul-25 19:34N 37°49' W 122°24'1 0.9
2015-Jul-25 18:34N 37°49' W 122°25'0 0.1
2015-Jul-25 17:33N 37°49' W 122°25'0 0.0
2015-Jul-25 16:31N 37°49' W 122°25'0 0.0
2015-Jul-25 15:26N 37°49' W 122°25'0 0.0
2015-Jul-25 14:32N 37°49' W 122°25'0 0.0
2015-Jul-25 13:31N 37°49' W 122°25'0 0.0
2015-Jul-25 12:29N 37°49' W 122°25'0 0.0
2015-Jul-25 11:30N 37°49' W 122°25'0 0.0
2015-Jul-25 10:33N 37°49' W 122°25'0 0.0
2015-Jul-25 09:33N 37°49' W 122°25'0 0.0
2015-Jul-25 08:31N 37°49' W 122°25'0 0.0
2015-Jul-25 07:26N 37°49' W 122°25'0 0.0
2015-Jul-25 06:33N 37°49' W 122°25'0 0.0
2015-Jul-25 05:21N 37°49' W 122°25'0 0.0
2015-Jul-25 04:31N 37°49' W 122°25'0 0.0
2015-Jul-25 03:33N 37°49' W 122°25'0 0.0
2015-Jul-25 02:17N 37°49' W 122°25'2 2.7
2015-Jul-25 01:33N 37°49' W 122°27'2 2.0
2015-Jul-25 00:33N 37°49' W 122°25'0 0.0
2015-Jul-24 23:33N 37°49' W 122°25'1 0.7
2015-Jul-24 22:33N 37°49' W 122°25'2 1.7
2015-Jul-24 21:33N 37°50' W 122°27'2 2.0
2015-Jul-24 20:33N 37°49' W 122°25'1 0.7
2015-Jul-24 19:33N 37°49' W 122°25'0 0.0
2015-Jul-24 18:33N 37°49' W 122°25'0 0.0
2015-Jul-24 17:17N 37°49' W 122°25'0 0.0
2015-Jul-24 16:31N 37°49' W 122°25'0 0.0
2015-Jul-24 15:32N 37°49' W 122°25'0 0.0
2015-Jul-24 14:31N 37°49' W 122°25'0 0.0
2015-Jul-24 13:29N 37°49' W 122°25'0 0.0
2015-Jul-24 12:32N 37°49' W 122°25'0 0.0
2015-Jul-24 11:32N 37°49' W 122°25'0 0.0
2015-Jul-24 10:32N 37°49' W 122°25'0 0.0
2015-Jul-24 09:28N 37°49' W 122°25'0 0.0
2015-Jul-24 08:32N 37°49' W 122°25'0 0.0
2015-Jul-24 07:23N 37°49' W 122°25'0 0.0
2015-Jul-24 06:30N 37°49' W 122°25'0 0.0
2015-Jul-24 05:29N 37°49' W 122°25'0 0.0
2015-Jul-24 04:32N 37°49' W 122°25'0 0.0
2015-Jul-24 03:23N 37°49' W 122°25'0 0.0
2015-Jul-24 02:33N 37°49' W 122°25'0 0.0
2015-Jul-24 01:33N 37°49' W 122°25'2 2.3
2015-Jul-24 00:33N 37°49' W 122°27'  

Dump ship's entire track history